Patricia Ann — WDE2845 — position and weather

sailwx.info

Track history (hours):
 
Tides and Currents Weather Stations Pressure Air Temp Water Temp Dewpoint Dewpoint Depression Visibility Wind Speed Wind Dir Waves Ship Positions

Patricia Ann

Owner: AmNav Maritime Corporation, Oakland, CA. More information available from US FCC via Universal Licensing System and Coast Guard Vessel Documentation Center.

Last reported at 2017-Nov-19 22:29 UTC. Time now 2017-Nov-20 05:52 UTC.
Position N 38°04' W 122°13'.

Length 24 m; draft 4.9 m.

Type: Tug. MMSI: 367330510.

Date/timePositionNaut miles runAvg speedWind from/ knotsBaromVisibWave heightAir tempDewpointWater temp
2017-Nov-19 22:29N 38°04' W 122°13'1 2.5
2017-Nov-19 22:00N 38°03' W 122°15'0 0.0
2017-Nov-19 21:30N 38°03' W 122°15'0 0.0
2017-Nov-19 21:00N 38°03' W 122°15'0 0.0
2017-Nov-19 20:29N 38°03' W 122°15'0 0.0
2017-Nov-19 20:00N 38°03' W 122°15'0 0.0
2017-Nov-19 19:20N 38°03' W 122°15'0 0.0
2017-Nov-19 19:01N 38°03' W 122°15'0 0.0
2017-Nov-19 18:30N 38°03' W 122°15'3 5.1
2017-Nov-19 18:01N 38°03' W 122°18'611.3
2017-Nov-19 17:28N 37°60' W 122°25'511.5
2017-Nov-19 17:00N 37°55' W 122°25'510.5
2017-Nov-19 16:31N 37°50' W 122°22'3 6.7
2017-Nov-19 16:00N 37°48' W 122°19'1 2.1
2017-Nov-19 15:31N 37°48' W 122°20'0 0.4
2017-Nov-19 15:01N 37°48' W 122°20'0 0.1
2017-Nov-19 14:30N 37°48' W 122°21'0 0.1
2017-Nov-19 14:00N 37°48' W 122°20'1 2.8
2017-Nov-19 13:30N 37°48' W 122°19'1 2.4
2017-Nov-19 13:00N 37°48' W 122°17'1 1.8
2017-Nov-19 12:30N 37°48' W 122°18'0 0.1
2017-Nov-19 12:00N 37°48' W 122°19'1 1.3
2017-Nov-19 11:31N 37°48' W 122°19'2 3.2
2017-Nov-19 11:01N 37°49' W 122°19'0 0.0
2017-Nov-19 10:30N 37°49' W 122°19'0 0.0
2017-Nov-19 10:00N 37°49' W 122°19'0 0.0
2017-Nov-19 09:31N 37°49' W 122°19'0 0.0
2017-Nov-19 09:00N 37°49' W 122°19'0 0.0
2017-Nov-19 08:30N 37°49' W 122°19'0 0.0
2017-Nov-19 08:00N 37°49' W 122°19'0 0.0
2017-Nov-19 07:30N 37°49' W 122°19'0 0.0
2017-Nov-19 07:01N 37°49' W 122°19'0 0.0
2017-Nov-19 06:31N 37°49' W 122°19'0 0.0
2017-Nov-19 06:00N 37°49' W 122°19'0 0.0
2017-Nov-19 05:31N 37°49' W 122°19'2 4.2
2017-Nov-19 05:00N 37°49' W 122°21'611.1
2017-Nov-19 04:31N 37°54' W 122°25'2 4.6
2017-Nov-19 04:00N 37°54' W 122°22'0 0.5
2017-Nov-19 03:30N 37°54' W 122°22'3 5.0
2017-Nov-19 02:59N 37°55' W 122°25'2 4.4
2017-Nov-19 02:30N 37°53' W 122°25'1 2.3
2017-Nov-19 02:00N 37°52' W 122°24'5 9.2
2017-Nov-19 01:31N 37°49' W 122°21'2 3.7
2017-Nov-19 01:00N 37°49' W 122°19'0 0.0
2017-Nov-19 00:30N 37°49' W 122°19'0 0.0
2017-Nov-19 00:00N 37°49' W 122°19'0 0.0
2017-Nov-18 23:31N 37°49' W 122°19'0 0.0
2017-Nov-18 23:00N 37°49' W 122°19'0 0.0
2017-Nov-18 22:31N 37°49' W 122°19'0 0.0
2017-Nov-18 22:01N 37°49' W 122°19'0 0.0
2017-Nov-18 21:30N 37°49' W 122°19'0 0.0
2017-Nov-18 21:01N 37°49' W 122°19'0 0.0
2017-Nov-18 20:30N 37°49' W 122°19'0 0.0
2017-Nov-18 20:00N 37°49' W 122°19'0 0.0
2017-Nov-18 19:30N 37°49' W 122°19'0 0.0
2017-Nov-18 19:00N 37°49' W 122°19'0 0.0
2017-Nov-18 18:30N 37°49' W 122°19'0 0.0
2017-Nov-18 18:00N 37°49' W 122°19'0 0.0
2017-Nov-18 17:31N 37°49' W 122°19'0 0.0
2017-Nov-18 17:00N 37°49' W 122°19'0 0.0
2017-Nov-18 16:30N 37°49' W 122°19'0 0.0
2017-Nov-18 16:00N 37°49' W 122°19'0 0.0
2017-Nov-18 15:30N 37°49' W 122°19'0 0.0
2017-Nov-18 15:01N 37°49' W 122°19'1 2.0
2017-Nov-18 14:31N 37°49' W 122°20'0 0.9
2017-Nov-18 14:01N 37°49' W 122°20'1 1.7
2017-Nov-18 13:31N 37°48' W 122°21'0 0.8
2017-Nov-18 13:00N 37°48' W 122°21'1 1.2
2017-Nov-18 12:30N 37°48' W 122°20'2 3.9
2017-Nov-18 12:01N 37°48' W 122°17'1 1.7
2017-Nov-18 11:31N 37°48' W 122°19'0 0.5
2017-Nov-18 11:00N 37°48' W 122°19'1 2.7
2017-Nov-18 10:30N 37°48' W 122°20'2 3.6
2017-Nov-18 10:00N 37°49' W 122°19'0 0.0
2017-Nov-18 09:31N 37°49' W 122°19'0 0.0
2017-Nov-18 09:01N 37°49' W 122°19'0 0.0
2017-Nov-18 08:30N 37°49' W 122°19'0 0.0
2017-Nov-18 08:01N 37°49' W 122°19'0 0.0
2017-Nov-18 07:31N 37°49' W 122°19'0 0.0
2017-Nov-18 07:01N 37°49' W 122°19'0 0.0
2017-Nov-18 06:31N 37°49' W 122°19'0 0.0
2017-Nov-18 06:01N 37°49' W 122°19'0 0.0
2017-Nov-18 05:30N 37°49' W 122°19'0 0.0
2017-Nov-18 05:00N 37°49' W 122°19'0 0.0
2017-Nov-18 04:30N 37°49' W 122°19'0 0.0
2017-Nov-18 04:00N 37°49' W 122°19'0 0.0
2017-Nov-18 03:30N 37°49' W 122°19'0 0.8
2017-Nov-18 03:01N 37°49' W 122°19'1 2.5
2017-Nov-18 02:30N 37°48' W 122°19'1 2.7
2017-Nov-18 02:00N 37°48' W 122°21'1 2.6
2017-Nov-18 01:30N 37°48' W 122°22'4 7.7
2017-Nov-18 01:00N 37°48' W 122°18'0 0.4
2017-Nov-18 00:30N 37°48' W 122°18'1 1.3
2017-Nov-18 00:01N 37°48' W 122°19'0 0.3
2017-Nov-17 23:31N 37°48' W 122°18'0 0.0
2017-Nov-17 23:00N 37°48' W 122°18'0 0.0
2017-Nov-17 22:31N 37°48' W 122°18'0 0.7
2017-Nov-17 22:00N 37°48' W 122°18'0 0.0
2017-Nov-17 21:31N 37°48' W 122°18'1 2.4
2017-Nov-17 21:00N 37°48' W 122°20'2 3.2
2017-Nov-17 20:31N 37°49' W 122°19'0 0.0
2017-Nov-17 20:00N 37°49' W 122°19'0 0.0
2017-Nov-17 19:31N 37°49' W 122°19'0 0.0
2017-Nov-17 19:00N 37°49' W 122°19'0 0.0
2017-Nov-17 18:31N 37°49' W 122°19'0 0.0
2017-Nov-17 18:00N 37°49' W 122°19'0 0.0
2017-Nov-17 17:31N 37°49' W 122°19'0 0.0
2017-Nov-17 17:00N 37°49' W 122°19'0 0.0
2017-Nov-17 16:30N 37°49' W 122°19'0 0.0
2017-Nov-17 16:01N 37°49' W 122°19'0 0.0
2017-Nov-17 15:31N 37°49' W 122°19'0 0.0
2017-Nov-17 15:00N 37°49' W 122°19'0 0.0
2017-Nov-17 14:31N 37°49' W 122°19'0 0.0
2017-Nov-17 14:01N 37°49' W 122°19'0 0.0
2017-Nov-17 13:31N 37°49' W 122°19'0 0.0
2017-Nov-17 13:01N 37°49' W 122°19'0 0.0
2017-Nov-17 12:31N 37°49' W 122°19'0 0.0
2017-Nov-17 12:00N 37°49' W 122°19'0 0.0
2017-Nov-17 11:30N 37°49' W 122°19'0 0.0
2017-Nov-17 11:00N 37°49' W 122°19'0 0.0
2017-Nov-17 10:31N 37°49' W 122°19'0 0.0
2017-Nov-17 10:01N 37°49' W 122°19'0 0.0
2017-Nov-17 09:31N 37°49' W 122°19'0 0.0
2017-Nov-17 09:01N 37°49' W 122°19'0 0.0
2017-Nov-17 08:30N 37°49' W 122°19'0 0.0
2017-Nov-17 08:00N 37°49' W 122°19'0 0.0
2017-Nov-17 07:30N 37°49' W 122°19'0 0.0
2017-Nov-17 07:01N 37°49' W 122°19'0 0.0
2017-Nov-17 06:31N 37°49' W 122°19'0 0.0
2017-Nov-17 06:01N 37°49' W 122°19'0 0.0
2017-Nov-17 05:30N 37°49' W 122°19'0 0.0
2017-Nov-17 05:01N 37°49' W 122°19'2 3.8
2017-Nov-17 04:31N 37°48' W 122°21'1 2.7
2017-Nov-17 04:00N 37°48' W 122°19'0 0.4
2017-Nov-17 03:30N 37°48' W 122°19'3 5.1
2017-Nov-17 03:00N 37°47' W 122°22'1 1.4
2017-Nov-17 02:30N 37°48' W 122°23'1 1.1
2017-Nov-17 02:00N 37°48' W 122°22'2 4.1
2017-Nov-17 01:30N 37°49' W 122°19'0 0.4
2017-Nov-17 01:00N 37°49' W 122°19'0 0.1
2017-Nov-17 00:30N 37°49' W 122°19'1 1.6
2017-Nov-17 00:00N 37°49' W 122°19'0 0.0
2017-Nov-16 23:30N 37°49' W 122°19'0 0.0
2017-Nov-16 23:00N 37°49' W 122°19'0 0.0
2017-Nov-16 22:30N 37°49' W 122°19'0 0.0
2017-Nov-16 22:00N 37°49' W 122°19'0 0.0
2017-Nov-16 21:30N 37°49' W 122°19'0 0.0
2017-Nov-16 21:00N 37°49' W 122°19'0 0.0
2017-Nov-16 20:31N 37°49' W 122°19'0 0.0
2017-Nov-16 20:00N 37°49' W 122°19'0 0.0
2017-Nov-16 19:30N 37°49' W 122°19'0 0.0
2017-Nov-16 19:00N 37°49' W 122°19'0 0.0
2017-Nov-16 18:30N 37°49' W 122°19'0 0.0
2017-Nov-16 18:00N 37°49' W 122°19'0 0.0
2017-Nov-16 17:30N 37°49' W 122°19'0 0.0
2017-Nov-16 17:00N 37°49' W 122°19'0 0.0
2017-Nov-16 16:30N 37°49' W 122°19'0 0.0
2017-Nov-16 16:01N 37°49' W 122°19'0 0.0
2017-Nov-16 15:31N 37°49' W 122°19'0 0.0
2017-Nov-16 15:00N 37°49' W 122°19'0 0.0
2017-Nov-16 14:30N 37°49' W 122°19'0 0.0
2017-Nov-16 14:01N 37°49' W 122°19'0 0.0
2017-Nov-16 13:30N 37°49' W 122°19'0 0.0
2017-Nov-16 13:00N 37°49' W 122°19'0 0.0
2017-Nov-16 12:30N 37°49' W 122°19'0 0.0
2017-Nov-16 12:00N 37°49' W 122°19'0 0.0
2017-Nov-16 11:30N 37°49' W 122°19'0 0.0
2017-Nov-16 11:01N 37°49' W 122°19'0 0.0
2017-Nov-16 10:31N 37°49' W 122°19'0 0.0
2017-Nov-16 10:00N 37°49' W 122°19'0 0.0
2017-Nov-16 09:30N 37°49' W 122°19'0 0.0
2017-Nov-16 09:00N 37°49' W 122°19'0 0.0
2017-Nov-16 08:30N 37°49' W 122°19'0 0.0
2017-Nov-16 08:00N 37°49' W 122°19'0 0.0
2017-Nov-16 07:30N 37°49' W 122°19'0 0.0
2017-Nov-16 07:00N 37°49' W 122°19'0 0.0
2017-Nov-16 06:30N 37°49' W 122°19'0 0.0
2017-Nov-16 06:00N 37°49' W 122°19'0 0.0
2017-Nov-16 05:31N 37°49' W 122°19'0 0.0
2017-Nov-16 05:01N 37°49' W 122°19'0 0.0
2017-Nov-16 04:30N 37°49' W 122°19'0 0.0
2017-Nov-16 04:01N 37°49' W 122°19'0 0.0
2017-Nov-16 03:30N 37°49' W 122°19'0 0.1
2017-Nov-16 03:01N 37°49' W 122°19'0 0.0
2017-Nov-16 02:31N 37°49' W 122°19'0 0.0
2017-Nov-16 02:01N 37°49' W 122°19'0 0.0
2017-Nov-16 01:30N 37°49' W 122°19'1 1.6
2017-Nov-16 01:00N 37°49' W 122°19'0 0.7
2017-Nov-16 00:30N 37°49' W 122°20'0 0.7
2017-Nov-16 00:00N 37°49' W 122°19'1 2.1
2017-Nov-15 23:30N 37°48' W 122°21'1 2.9
2017-Nov-15 23:00N 37°48' W 122°19'1 2.4
2017-Nov-15 22:30N 37°48' W 122°17'1 2.4
2017-Nov-15 22:01N 37°48' W 122°19'3 5.3
2017-Nov-15 21:31N 37°48' W 122°22'1 2.1
2017-Nov-15 21:01N 37°48' W 122°21'1 1.4
2017-Nov-15 20:30N 37°49' W 122°20'0 0.0
2017-Nov-15 20:00N 37°49' W 122°20'2 4.1
2017-Nov-15 19:31N 37°48' W 122°18'0 0.0
2017-Nov-15 19:00N 37°48' W 122°18'0 0.6
2017-Nov-15 18:30N 37°48' W 122°18'3 5.4
2017-Nov-15 18:01N 37°48' W 122°22'1 1.7
2017-Nov-15 17:30N 37°48' W 122°21'0 0.0
2017-Nov-15 17:00N 37°48' W 122°21'1 2.4
2017-Nov-15 16:31N 37°48' W 122°19'0 0.4
2017-Nov-15 16:00N 37°48' W 122°19'0 0.1
2017-Nov-15 15:30N 37°48' W 122°19'0 0.0
2017-Nov-15 15:00N 37°48' W 122°19'0 0.0
2017-Nov-15 14:31N 37°48' W 122°19'0 0.0
2017-Nov-15 14:01N 37°48' W 122°19'0 0.0
2017-Nov-15 13:30N 37°48' W 122°19'0 0.0
2017-Nov-15 13:00N 37°48' W 122°19'0 0.0
2017-Nov-15 12:30N 37°48' W 122°19'0 0.0
2017-Nov-15 12:00N 37°48' W 122°19'0 0.0
2017-Nov-15 11:30N 37°48' W 122°19'0 0.0
2017-Nov-15 11:01N 37°48' W 122°19'0 0.0
2017-Nov-15 10:31N 37°48' W 122°19'0 0.0
2017-Nov-15 10:00N 37°48' W 122°19'1 1.8
2017-Nov-15 09:30N 37°48' W 122°18'0 0.2
2017-Nov-15 09:01N 37°48' W 122°18'1 1.2
2017-Nov-15 08:30N 37°48' W 122°19'2 3.3
2017-Nov-15 08:00N 37°49' W 122°19'0 0.0
2017-Nov-15 07:30N 37°49' W 122°19'0 0.0
2017-Nov-15 07:00N 37°49' W 122°19'0 0.0
2017-Nov-15 06:30N 37°49' W 122°19'0 0.0
2017-Nov-15 06:01N 37°49' W 122°19'0 0.0
2017-Nov-15 05:30N 37°49' W 122°19'0 0.0
2017-Nov-15 05:00N 37°49' W 122°19'0 0.0
2017-Nov-15 04:30N 37°49' W 122°19'0 0.0
2017-Nov-15 04:00N 37°49' W 122°19'0 0.0
2017-Nov-15 03:30N 37°49' W 122°19'0 0.0
2017-Nov-15 03:01N 37°49' W 122°19'0 0.0
2017-Nov-15 02:30N 37°49' W 122°19'0 0.0
2017-Nov-15 02:00N 37°49' W 122°19'0 0.0
2017-Nov-15 01:31N 37°49' W 122°19'1 2.0
2017-Nov-15 01:00N 37°49' W 122°20'2 4.0
2017-Nov-15 00:30N 37°48' W 122°22'1 2.6
2017-Nov-15 00:01N 37°48' W 122°21'0 0.0
2017-Nov-14 23:30N 37°48' W 122°21'1 2.1
2017-Nov-14 23:00N 37°48' W 122°19'2 3.3
2017-Nov-14 22:30N 37°48' W 122°21'1 1.2
2017-Nov-14 22:00N 37°48' W 122°21'2 3.8
2017-Nov-14 21:30N 37°49' W 122°19'0 0.0
2017-Nov-14 21:00N 37°49' W 122°19'0 0.0
2017-Nov-14 20:30N 37°49' W 122°19'0 0.0
2017-Nov-14 20:00N 37°49' W 122°19'1 1.3
2017-Nov-14 19:30N 37°49' W 122°19'2 3.3
2017-Nov-14 19:00N 37°48' W 122°18'1 1.0
2017-Nov-14 18:31N 37°48' W 122°17'3 5.1
2017-Nov-14 18:00N 37°48' W 122°21'0 0.5
2017-Nov-14 17:30N 37°48' W 122°21'0 0.0
2017-Nov-14 17:00N 37°48' W 122°21'0 0.0
2017-Nov-14 16:31N 37°48' W 122°21'0 0.0
2017-Nov-14 16:00N 37°48' W 122°21'0 0.0
2017-Nov-14 15:30N 37°48' W 122°21'0 0.0
2017-Nov-14 15:00N 37°48' W 122°21'0 0.0
2017-Nov-14 14:30N 37°48' W 122°21'0 0.0
2017-Nov-14 14:00N 37°48' W 122°21'0 0.0
2017-Nov-14 13:31N 37°48' W 122°21'0 0.2
2017-Nov-14 13:01N 37°48' W 122°21'0 0.5
2017-Nov-14 12:30N 37°49' W 122°20'0 0.0
2017-Nov-14 12:00N 37°49' W 122°20'0 0.7
2017-Nov-14 11:30N 37°49' W 122°20'0 0.7
2017-Nov-14 11:00N 37°49' W 122°20'0 0.2
2017-Nov-14 10:30N 37°49' W 122°20'1 1.8
2017-Nov-14 10:01N 37°49' W 122°19'0 0.0
2017-Nov-14 09:31N 37°49' W 122°19'0 0.0
2017-Nov-14 09:00N 37°49' W 122°19'0 0.0
2017-Nov-14 08:30N 37°49' W 122°19'0 0.0
2017-Nov-14 08:00N 37°49' W 122°19'0 0.0
2017-Nov-14 07:30N 37°49' W 122°19'0 0.0
2017-Nov-14 07:00N 37°49' W 122°19'0 0.0
2017-Nov-14 06:30N 37°49' W 122°19'0 0.0
2017-Nov-14 06:00N 37°49' W 122°19'0 0.0
2017-Nov-14 05:30N 37°49' W 122°19'2 3.3
2017-Nov-14 05:01N 37°48' W 122°19'1 2.3
2017-Nov-14 04:31N 37°48' W 122°17'1 2.6
2017-Nov-14 04:01N 37°48' W 122°19'0 0.5
2017-Nov-14 03:30N 37°48' W 122°19'2 3.3
2017-Nov-14 03:01N 37°48' W 122°21'2 3.7
2017-Nov-14 02:30N 37°49' W 122°19'0 0.0
2017-Nov-14 02:00N 37°49' W 122°19'0 0.0
2017-Nov-14 01:30N 37°49' W 122°19'0 0.0
2017-Nov-14 01:00N 37°49' W 122°19'0 0.0
2017-Nov-14 00:30N 37°49' W 122°19'0 0.0
2017-Nov-14 00:00N 37°49' W 122°19'0 0.0
2017-Nov-13 23:30N 37°49' W 122°19'0 0.0
2017-Nov-13 23:00N 37°49' W 122°19'0 0.0
2017-Nov-13 22:30N 37°49' W 122°19'0 0.0
2017-Nov-13 22:00N 37°49' W 122°19'15 0.7
2017-Nov-13 01:13N 38°04' W 122°12'0 2.0
2017-Nov-13 00:59N 38°04' W 122°13'0 0.0
2017-Nov-12 20:30N 38°03' W 122°13'2 0.8
2017-Nov-12 18:19N 38°03' W 122°11'2 6.9
2017-Nov-12 18:00N 38°04' W 122°14'4 7.3
2017-Nov-12 17:29N 38°03' W 122°18'3 7.3
2017-Nov-12 17:00N 38°02' W 122°22'6 6.7
2017-Nov-12 16:05N 37°57' W 122°27'1 8.2
2017-Nov-12 15:59N 37°56' W 122°27'1 2.9
2017-Nov-12 15:30N 37°55' W 122°26'611.6
2017-Nov-12 15:01N 37°50' W 122°22'2 4.9
2017-Nov-12 14:30N 37°49' W 122°19'0 0.3
2017-Nov-12 14:01N 37°49' W 122°19'1 1.5
2017-Nov-12 13:31N 37°49' W 122°20'0 0.4
2017-Nov-12 13:00N 37°49' W 122°20'1 2.1
2017-Nov-12 12:30N 37°49' W 122°19'0 0.0
2017-Nov-12 12:00N 37°49' W 122°19'0 0.0
2017-Nov-12 11:30N 37°49' W 122°19'0 0.0
2017-Nov-12 11:00N 37°49' W 122°19'0 0.0
2017-Nov-12 10:30N 37°49' W 122°19'0 0.0
2017-Nov-12 10:00N 37°49' W 122°19'0 0.0
2017-Nov-12 09:30N 37°49' W 122°19'0 0.0
2017-Nov-12 09:01N 37°49' W 122°19'0 0.0
2017-Nov-12 08:31N 37°49' W 122°19'0 0.0
2017-Nov-12 08:01N 37°49' W 122°19'0 0.0
2017-Nov-12 07:31N 37°49' W 122°19'0 0.0
2017-Nov-12 07:00N 37°49' W 122°19'0 0.0
2017-Nov-12 06:30N 37°49' W 122°19'0 0.0
2017-Nov-12 06:00N 37°49' W 122°19'0 0.0
2017-Nov-12 05:30N 37°49' W 122°19'0 0.0
2017-Nov-12 05:01N 37°49' W 122°19'0 0.0
2017-Nov-12 04:30N 37°49' W 122°19'0 0.0
2017-Nov-12 04:00N 37°49' W 122°19'1 1.2
2017-Nov-12 03:31N 37°49' W 122°19'2 3.4
2017-Nov-12 03:01N 37°48' W 122°18'1 1.8
2017-Nov-12 02:31N 37°48' W 122°19'0 0.0
2017-Nov-12 02:00N 37°48' W 122°19'0 0.0
2017-Nov-12 01:30N 37°48' W 122°19'0 0.4
2017-Nov-12 01:01N 37°48' W 122°19'3 6.8
2017-Nov-12 00:30N 37°50' W 122°22'4 8.4
2017-Nov-12 00:01N 37°54' W 122°24'1 2.9
2017-Nov-11 23:30N 37°55' W 122°22'0 0.1
2017-Nov-11 23:01N 37°55' W 122°22'1 1.3
2017-Nov-11 22:31N 37°54' W 122°22'3 5.4
2017-Nov-11 21:56N 37°55' W 122°25'3 6.1
2017-Nov-11 21:31N 37°53' W 122°25'2 3.2
2017-Nov-11 21:00N 37°51' W 122°24'4 7.8
2017-Nov-11 20:31N 37°49' W 122°20'1 2.8
2017-Nov-11 20:00N 37°49' W 122°19'0 0.0
2017-Nov-11 19:30N 37°49' W 122°19'0 0.0
2017-Nov-11 19:00N 37°49' W 122°19'0 0.0
2017-Nov-11 18:30N 37°49' W 122°19'0 0.0
2017-Nov-11 18:01N 37°49' W 122°19'0 0.0
2017-Nov-11 17:30N 37°49' W 122°19'0 0.0
2017-Nov-11 17:00N 37°49' W 122°19'0 0.0
2017-Nov-11 16:30N 37°49' W 122°19'0 0.0
2017-Nov-11 16:00N 37°49' W 122°19'0 0.0
2017-Nov-11 15:30N 37°49' W 122°19'1 1.2
2017-Nov-11 15:00N 37°49' W 122°19'0 0.8
2017-Nov-11 14:31N 37°49' W 122°20'1 1.7
2017-Nov-11 14:01N 37°48' W 122°21'0 0.5
2017-Nov-11 13:30N 37°49' W 122°20'2 3.1
2017-Nov-11 13:01N 37°49' W 122°19'0 0.0
2017-Nov-11 12:31N 37°49' W 122°19'0 0.0
2017-Nov-11 12:00N 37°49' W 122°19'0 0.0
2017-Nov-11 11:30N 37°49' W 122°19'0 0.0
2017-Nov-11 11:00N 37°49' W 122°19'0 0.0
2017-Nov-11 10:31N 37°49' W 122°19'0 0.0
2017-Nov-11 10:00N 37°49' W 122°19'0 0.0
2017-Nov-11 09:30N 37°49' W 122°19'0 0.0
2017-Nov-11 09:00N 37°49' W 122°19'0 0.0
2017-Nov-11 08:31N 37°49' W 122°19'0 0.0
2017-Nov-11 08:00N 37°49' W 122°19'0 0.0
2017-Nov-11 07:30N 37°49' W 122°19'0 0.0
2017-Nov-11 07:01N 37°49' W 122°19'0 0.0
2017-Nov-11 06:31N 37°49' W 122°19'0 0.0
2017-Nov-11 06:00N 37°49' W 122°19'0 0.0
2017-Nov-11 05:30N 37°49' W 122°19'0 0.0
2017-Nov-11 05:00N 37°49' W 122°19'0 0.0
2017-Nov-11 04:30N 37°49' W 122°19'0 0.0
2017-Nov-11 04:01N 37°49' W 122°19'0 0.0
2017-Nov-11 03:31N 37°49' W 122°19'0 0.0
2017-Nov-11 03:00N 37°49' W 122°19'0 0.0
2017-Nov-11 02:30N 37°49' W 122°19'0 0.0
2017-Nov-11 02:01N 37°49' W 122°19'0 0.0
2017-Nov-11 01:31N 37°49' W 122°19'0 0.0
2017-Nov-11 01:00N 37°49' W 122°19'2 4.0
2017-Nov-11 00:31N 37°49' W 122°21'5 9.8
2017-Nov-11 00:00N 37°53' W 122°25'3 2.8
2017-Nov-10 23:04N 37°56' W 122°25'0 1.4
2017-Nov-10 22:55N 37°56' W 122°25'2 4.1
2017-Nov-10 22:26N 37°58' W 122°26'5 8.5
2017-Nov-10 21:52N 38°02' W 122°23'3 8.5
2017-Nov-10 21:30N 38°03' W 122°19'9 1.3
2017-Nov-10 14:37N 38°02' W 122°08'3 0.3
2017-Nov-10 02:56N 38°03' W 122°12'1 0.9
2017-Nov-10 01:21N 38°04' W 122°14'  
Track history (hours):
 
Tides and Currents Weather Stations Pressure Air Temp Water Temp Dewpoint Dewpoint Depression Visibility Wind Speed Wind Dir Waves Ship Positions

Patricia Ann

Owner: AmNav Maritime Corporation, Oakland, CA. More information available from US FCC via Universal Licensing System and Coast Guard Vessel Documentation Center.

Last reported at 2017-Nov-19 22:29 UTC. Time now 2017-Nov-20 05:52 UTC.
Position N 38°04' W 122°13'.

Length 24 m; draft 4.9 m.

Type: Tug. MMSI: 367330510.

Date/timePositionNaut miles runAvg speedWind from/ knotsBaromVisibWave heightAir tempDewpointWater temp
2017-Nov-19 22:29N 38°04' W 122°13'1 2.5
2017-Nov-19 22:00N 38°03' W 122°15'0 0.0
2017-Nov-19 21:30N 38°03' W 122°15'0 0.0
2017-Nov-19 21:00N 38°03' W 122°15'0 0.0
2017-Nov-19 20:29N 38°03' W 122°15'0 0.0
2017-Nov-19 20:00N 38°03' W 122°15'0 0.0
2017-Nov-19 19:20N 38°03' W 122°15'0 0.0
2017-Nov-19 19:01N 38°03' W 122°15'0 0.0
2017-Nov-19 18:30N 38°03' W 122°15'3 5.1
2017-Nov-19 18:01N 38°03' W 122°18'611.3
2017-Nov-19 17:28N 37°60' W 122°25'511.5
2017-Nov-19 17:00N 37°55' W 122°25'510.5
2017-Nov-19 16:31N 37°50' W 122°22'3 6.7
2017-Nov-19 16:00N 37°48' W 122°19'1 2.1
2017-Nov-19 15:31N 37°48' W 122°20'0 0.4
2017-Nov-19 15:01N 37°48' W 122°20'0 0.1
2017-Nov-19 14:30N 37°48' W 122°21'0 0.1
2017-Nov-19 14:00N 37°48' W 122°20'1 2.8
2017-Nov-19 13:30N 37°48' W 122°19'1 2.4
2017-Nov-19 13:00N 37°48' W 122°17'1 1.8
2017-Nov-19 12:30N 37°48' W 122°18'0 0.1
2017-Nov-19 12:00N 37°48' W 122°19'1 1.3
2017-Nov-19 11:31N 37°48' W 122°19'2 3.2
2017-Nov-19 11:01N 37°49' W 122°19'0 0.0
2017-Nov-19 10:30N 37°49' W 122°19'0 0.0
2017-Nov-19 10:00N 37°49' W 122°19'0 0.0
2017-Nov-19 09:31N 37°49' W 122°19'0 0.0
2017-Nov-19 09:00N 37°49' W 122°19'0 0.0
2017-Nov-19 08:30N 37°49' W 122°19'0 0.0
2017-Nov-19 08:00N 37°49' W 122°19'0 0.0
2017-Nov-19 07:30N 37°49' W 122°19'0 0.0
2017-Nov-19 07:01N 37°49' W 122°19'0 0.0
2017-Nov-19 06:31N 37°49' W 122°19'0 0.0
2017-Nov-19 06:00N 37°49' W 122°19'0 0.0
2017-Nov-19 05:31N 37°49' W 122°19'2 4.2
2017-Nov-19 05:00N 37°49' W 122°21'611.1
2017-Nov-19 04:31N 37°54' W 122°25'2 4.6
2017-Nov-19 04:00N 37°54' W 122°22'0 0.5
2017-Nov-19 03:30N 37°54' W 122°22'3 5.0
2017-Nov-19 02:59N 37°55' W 122°25'2 4.4
2017-Nov-19 02:30N 37°53' W 122°25'1 2.3
2017-Nov-19 02:00N 37°52' W 122°24'5 9.2
2017-Nov-19 01:31N 37°49' W 122°21'2 3.7
2017-Nov-19 01:00N 37°49' W 122°19'0 0.0
2017-Nov-19 00:30N 37°49' W 122°19'0 0.0
2017-Nov-19 00:00N 37°49' W 122°19'0 0.0
2017-Nov-18 23:31N 37°49' W 122°19'0 0.0
2017-Nov-18 23:00N 37°49' W 122°19'0 0.0
2017-Nov-18 22:31N 37°49' W 122°19'0 0.0
2017-Nov-18 22:01N 37°49' W 122°19'0 0.0
2017-Nov-18 21:30N 37°49' W 122°19'0 0.0
2017-Nov-18 21:01N 37°49' W 122°19'0 0.0
2017-Nov-18 20:30N 37°49' W 122°19'0 0.0
2017-Nov-18 20:00N 37°49' W 122°19'0 0.0
2017-Nov-18 19:30N 37°49' W 122°19'0 0.0
2017-Nov-18 19:00N 37°49' W 122°19'0 0.0
2017-Nov-18 18:30N 37°49' W 122°19'0 0.0
2017-Nov-18 18:00N 37°49' W 122°19'0 0.0
2017-Nov-18 17:31N 37°49' W 122°19'0 0.0
2017-Nov-18 17:00N 37°49' W 122°19'0 0.0
2017-Nov-18 16:30N 37°49' W 122°19'0 0.0
2017-Nov-18 16:00N 37°49' W 122°19'0 0.0
2017-Nov-18 15:30N 37°49' W 122°19'0 0.0
2017-Nov-18 15:01N 37°49' W 122°19'1 2.0
2017-Nov-18 14:31N 37°49' W 122°20'0 0.9
2017-Nov-18 14:01N 37°49' W 122°20'1 1.7
2017-Nov-18 13:31N 37°48' W 122°21'0 0.8
2017-Nov-18 13:00N 37°48' W 122°21'1 1.2
2017-Nov-18 12:30N 37°48' W 122°20'2 3.9
2017-Nov-18 12:01N 37°48' W 122°17'1 1.7
2017-Nov-18 11:31N 37°48' W 122°19'0 0.5
2017-Nov-18 11:00N 37°48' W 122°19'1 2.7
2017-Nov-18 10:30N 37°48' W 122°20'2 3.6
2017-Nov-18 10:00N 37°49' W 122°19'0 0.0
2017-Nov-18 09:31N 37°49' W 122°19'0 0.0
2017-Nov-18 09:01N 37°49' W 122°19'0 0.0
2017-Nov-18 08:30N 37°49' W 122°19'0 0.0
2017-Nov-18 08:01N 37°49' W 122°19'0 0.0
2017-Nov-18 07:31N 37°49' W 122°19'0 0.0
2017-Nov-18 07:01N 37°49' W 122°19'0 0.0
2017-Nov-18 06:31N 37°49' W 122°19'0 0.0
2017-Nov-18 06:01N 37°49' W 122°19'0 0.0
2017-Nov-18 05:30N 37°49' W 122°19'0 0.0
2017-Nov-18 05:00N 37°49' W 122°19'0 0.0
2017-Nov-18 04:30N 37°49' W 122°19'0 0.0
2017-Nov-18 04:00N 37°49' W 122°19'0 0.0
2017-Nov-18 03:30N 37°49' W 122°19'0 0.8
2017-Nov-18 03:01N 37°49' W 122°19'1 2.5
2017-Nov-18 02:30N 37°48' W 122°19'1 2.7
2017-Nov-18 02:00N 37°48' W 122°21'1 2.6
2017-Nov-18 01:30N 37°48' W 122°22'4 7.7
2017-Nov-18 01:00N 37°48' W 122°18'0 0.4
2017-Nov-18 00:30N 37°48' W 122°18'1 1.3
2017-Nov-18 00:01N 37°48' W 122°19'0 0.3
2017-Nov-17 23:31N 37°48' W 122°18'0 0.0
2017-Nov-17 23:00N 37°48' W 122°18'0 0.0
2017-Nov-17 22:31N 37°48' W 122°18'0 0.7
2017-Nov-17 22:00N 37°48' W 122°18'0 0.0
2017-Nov-17 21:31N 37°48' W 122°18'1 2.4
2017-Nov-17 21:00N 37°48' W 122°20'2 3.2
2017-Nov-17 20:31N 37°49' W 122°19'0 0.0
2017-Nov-17 20:00N 37°49' W 122°19'0 0.0
2017-Nov-17 19:31N 37°49' W 122°19'0 0.0
2017-Nov-17 19:00N 37°49' W 122°19'0 0.0
2017-Nov-17 18:31N 37°49' W 122°19'0 0.0
2017-Nov-17 18:00N 37°49' W 122°19'0 0.0
2017-Nov-17 17:31N 37°49' W 122°19'0 0.0
2017-Nov-17 17:00N 37°49' W 122°19'0 0.0
2017-Nov-17 16:30N 37°49' W 122°19'0 0.0
2017-Nov-17 16:01N 37°49' W 122°19'0 0.0
2017-Nov-17 15:31N 37°49' W 122°19'0 0.0
2017-Nov-17 15:00N 37°49' W 122°19'0 0.0
2017-Nov-17 14:31N 37°49' W 122°19'0 0.0
2017-Nov-17 14:01N 37°49' W 122°19'0 0.0
2017-Nov-17 13:31N 37°49' W 122°19'0 0.0
2017-Nov-17 13:01N 37°49' W 122°19'0 0.0
2017-Nov-17 12:31N 37°49' W 122°19'0 0.0
2017-Nov-17 12:00N 37°49' W 122°19'0 0.0
2017-Nov-17 11:30N 37°49' W 122°19'0 0.0
2017-Nov-17 11:00N 37°49' W 122°19'0 0.0
2017-Nov-17 10:31N 37°49' W 122°19'0 0.0
2017-Nov-17 10:01N 37°49' W 122°19'0 0.0
2017-Nov-17 09:31N 37°49' W 122°19'0 0.0
2017-Nov-17 09:01N 37°49' W 122°19'0 0.0
2017-Nov-17 08:30N 37°49' W 122°19'0 0.0
2017-Nov-17 08:00N 37°49' W 122°19'0 0.0
2017-Nov-17 07:30N 37°49' W 122°19'0 0.0
2017-Nov-17 07:01N 37°49' W 122°19'0 0.0
2017-Nov-17 06:31N 37°49' W 122°19'0 0.0
2017-Nov-17 06:01N 37°49' W 122°19'0 0.0
2017-Nov-17 05:30N 37°49' W 122°19'0 0.0
2017-Nov-17 05:01N 37°49' W 122°19'2 3.8
2017-Nov-17 04:31N 37°48' W 122°21'1 2.7
2017-Nov-17 04:00N 37°48' W 122°19'0 0.4
2017-Nov-17 03:30N 37°48' W 122°19'3 5.1
2017-Nov-17 03:00N 37°47' W 122°22'1 1.4
2017-Nov-17 02:30N 37°48' W 122°23'1 1.1
2017-Nov-17 02:00N 37°48' W 122°22'2 4.1
2017-Nov-17 01:30N 37°49' W 122°19'0 0.4
2017-Nov-17 01:00N 37°49' W 122°19'0 0.1
2017-Nov-17 00:30N 37°49' W 122°19'1 1.6
2017-Nov-17 00:00N 37°49' W 122°19'0 0.0
2017-Nov-16 23:30N 37°49' W 122°19'0 0.0
2017-Nov-16 23:00N 37°49' W 122°19'0 0.0
2017-Nov-16 22:30N 37°49' W 122°19'0 0.0
2017-Nov-16 22:00N 37°49' W 122°19'0 0.0
2017-Nov-16 21:30N 37°49' W 122°19'0 0.0
2017-Nov-16 21:00N 37°49' W 122°19'0 0.0
2017-Nov-16 20:31N 37°49' W 122°19'0 0.0
2017-Nov-16 20:00N 37°49' W 122°19'0 0.0
2017-Nov-16 19:30N 37°49' W 122°19'0 0.0
2017-Nov-16 19:00N 37°49' W 122°19'0 0.0
2017-Nov-16 18:30N 37°49' W 122°19'0 0.0
2017-Nov-16 18:00N 37°49' W 122°19'0 0.0
2017-Nov-16 17:30N 37°49' W 122°19'0 0.0
2017-Nov-16 17:00N 37°49' W 122°19'0 0.0
2017-Nov-16 16:30N 37°49' W 122°19'0 0.0
2017-Nov-16 16:01N 37°49' W 122°19'0 0.0
2017-Nov-16 15:31N 37°49' W 122°19'0 0.0
2017-Nov-16 15:00N 37°49' W 122°19'0 0.0
2017-Nov-16 14:30N 37°49' W 122°19'0 0.0
2017-Nov-16 14:01N 37°49' W 122°19'0 0.0
2017-Nov-16 13:30N 37°49' W 122°19'0 0.0
2017-Nov-16 13:00N 37°49' W 122°19'0 0.0
2017-Nov-16 12:30N 37°49' W 122°19'0 0.0
2017-Nov-16 12:00N 37°49' W 122°19'0 0.0
2017-Nov-16 11:30N 37°49' W 122°19'0 0.0
2017-Nov-16 11:01N 37°49' W 122°19'0 0.0
2017-Nov-16 10:31N 37°49' W 122°19'0 0.0
2017-Nov-16 10:00N 37°49' W 122°19'0 0.0
2017-Nov-16 09:30N 37°49' W 122°19'0 0.0
2017-Nov-16 09:00N 37°49' W 122°19'0 0.0
2017-Nov-16 08:30N 37°49' W 122°19'0 0.0
2017-Nov-16 08:00N 37°49' W 122°19'0 0.0
2017-Nov-16 07:30N 37°49' W 122°19'0 0.0
2017-Nov-16 07:00N 37°49' W 122°19'0 0.0
2017-Nov-16 06:30N 37°49' W 122°19'0 0.0
2017-Nov-16 06:00N 37°49' W 122°19'0 0.0
2017-Nov-16 05:31N 37°49' W 122°19'0 0.0
2017-Nov-16 05:01N 37°49' W 122°19'0 0.0
2017-Nov-16 04:30N 37°49' W 122°19'0 0.0
2017-Nov-16 04:01N 37°49' W 122°19'0 0.0
2017-Nov-16 03:30N 37°49' W 122°19'0 0.1
2017-Nov-16 03:01N 37°49' W 122°19'0 0.0
2017-Nov-16 02:31N 37°49' W 122°19'0 0.0
2017-Nov-16 02:01N 37°49' W 122°19'0 0.0
2017-Nov-16 01:30N 37°49' W 122°19'1 1.6
2017-Nov-16 01:00N 37°49' W 122°19'0 0.7
2017-Nov-16 00:30N 37°49' W 122°20'0 0.7
2017-Nov-16 00:00N 37°49' W 122°19'1 2.1
2017-Nov-15 23:30N 37°48' W 122°21'1 2.9
2017-Nov-15 23:00N 37°48' W 122°19'1 2.4
2017-Nov-15 22:30N 37°48' W 122°17'1 2.4
2017-Nov-15 22:01N 37°48' W 122°19'3 5.3
2017-Nov-15 21:31N 37°48' W 122°22'1 2.1
2017-Nov-15 21:01N 37°48' W 122°21'1 1.4
2017-Nov-15 20:30N 37°49' W 122°20'0 0.0
2017-Nov-15 20:00N 37°49' W 122°20'2 4.1
2017-Nov-15 19:31N 37°48' W 122°18'0 0.0
2017-Nov-15 19:00N 37°48' W 122°18'0 0.6
2017-Nov-15 18:30N 37°48' W 122°18'3 5.4
2017-Nov-15 18:01N 37°48' W 122°22'1 1.7
2017-Nov-15 17:30N 37°48' W 122°21'0 0.0
2017-Nov-15 17:00N 37°48' W 122°21'1 2.4
2017-Nov-15 16:31N 37°48' W 122°19'0 0.4
2017-Nov-15 16:00N 37°48' W 122°19'0 0.1
2017-Nov-15 15:30N 37°48' W 122°19'0 0.0
2017-Nov-15 15:00N 37°48' W 122°19'0 0.0
2017-Nov-15 14:31N 37°48' W 122°19'0 0.0
2017-Nov-15 14:01N 37°48' W 122°19'0 0.0
2017-Nov-15 13:30N 37°48' W 122°19'0 0.0
2017-Nov-15 13:00N 37°48' W 122°19'0 0.0
2017-Nov-15 12:30N 37°48' W 122°19'0 0.0
2017-Nov-15 12:00N 37°48' W 122°19'0 0.0
2017-Nov-15 11:30N 37°48' W 122°19'0 0.0
2017-Nov-15 11:01N 37°48' W 122°19'0 0.0
2017-Nov-15 10:31N 37°48' W 122°19'0 0.0
2017-Nov-15 10:00N 37°48' W 122°19'1 1.8
2017-Nov-15 09:30N 37°48' W 122°18'0 0.2
2017-Nov-15 09:01N 37°48' W 122°18'1 1.2
2017-Nov-15 08:30N 37°48' W 122°19'2 3.3
2017-Nov-15 08:00N 37°49' W 122°19'0 0.0
2017-Nov-15 07:30N 37°49' W 122°19'0 0.0
2017-Nov-15 07:00N 37°49' W 122°19'0 0.0
2017-Nov-15 06:30N 37°49' W 122°19'0 0.0
2017-Nov-15 06:01N 37°49' W 122°19'0 0.0
2017-Nov-15 05:30N 37°49' W 122°19'0 0.0
2017-Nov-15 05:00N 37°49' W 122°19'0 0.0
2017-Nov-15 04:30N 37°49' W 122°19'0 0.0
2017-Nov-15 04:00N 37°49' W 122°19'0 0.0
2017-Nov-15 03:30N 37°49' W 122°19'0 0.0
2017-Nov-15 03:01N 37°49' W 122°19'0 0.0
2017-Nov-15 02:30N 37°49' W 122°19'0 0.0
2017-Nov-15 02:00N 37°49' W 122°19'0 0.0
2017-Nov-15 01:31N 37°49' W 122°19'1 2.0
2017-Nov-15 01:00N 37°49' W 122°20'2 4.0
2017-Nov-15 00:30N 37°48' W 122°22'1 2.6
2017-Nov-15 00:01N 37°48' W 122°21'0 0.0
2017-Nov-14 23:30N 37°48' W 122°21'1 2.1
2017-Nov-14 23:00N 37°48' W 122°19'2 3.3
2017-Nov-14 22:30N 37°48' W 122°21'1 1.2
2017-Nov-14 22:00N 37°48' W 122°21'2 3.8
2017-Nov-14 21:30N 37°49' W 122°19'0 0.0
2017-Nov-14 21:00N 37°49' W 122°19'0 0.0
2017-Nov-14 20:30N 37°49' W 122°19'0 0.0
2017-Nov-14 20:00N 37°49' W 122°19'1 1.3
2017-Nov-14 19:30N 37°49' W 122°19'2 3.3
2017-Nov-14 19:00N 37°48' W 122°18'1 1.0
2017-Nov-14 18:31N 37°48' W 122°17'3 5.1
2017-Nov-14 18:00N 37°48' W 122°21'0 0.5
2017-Nov-14 17:30N 37°48' W 122°21'0 0.0
2017-Nov-14 17:00N 37°48' W 122°21'0 0.0
2017-Nov-14 16:31N 37°48' W 122°21'0 0.0
2017-Nov-14 16:00N 37°48' W 122°21'0 0.0
2017-Nov-14 15:30N 37°48' W 122°21'0 0.0
2017-Nov-14 15:00N 37°48' W 122°21'0 0.0
2017-Nov-14 14:30N 37°48' W 122°21'0 0.0
2017-Nov-14 14:00N 37°48' W 122°21'0 0.0
2017-Nov-14 13:31N 37°48' W 122°21'0 0.2
2017-Nov-14 13:01N 37°48' W 122°21'0 0.5
2017-Nov-14 12:30N 37°49' W 122°20'0 0.0
2017-Nov-14 12:00N 37°49' W 122°20'0 0.7
2017-Nov-14 11:30N 37°49' W 122°20'0 0.7
2017-Nov-14 11:00N 37°49' W 122°20'0 0.2
2017-Nov-14 10:30N 37°49' W 122°20'1 1.8
2017-Nov-14 10:01N 37°49' W 122°19'0 0.0
2017-Nov-14 09:31N 37°49' W 122°19'0 0.0
2017-Nov-14 09:00N 37°49' W 122°19'0 0.0
2017-Nov-14 08:30N 37°49' W 122°19'0 0.0
2017-Nov-14 08:00N 37°49' W 122°19'0 0.0
2017-Nov-14 07:30N 37°49' W 122°19'0 0.0
2017-Nov-14 07:00N 37°49' W 122°19'0 0.0
2017-Nov-14 06:30N 37°49' W 122°19'0 0.0
2017-Nov-14 06:00N 37°49' W 122°19'0 0.0
2017-Nov-14 05:30N 37°49' W 122°19'2 3.3
2017-Nov-14 05:01N 37°48' W 122°19'1 2.3
2017-Nov-14 04:31N 37°48' W 122°17'1 2.6
2017-Nov-14 04:01N 37°48' W 122°19'0 0.5
2017-Nov-14 03:30N 37°48' W 122°19'2 3.3
2017-Nov-14 03:01N 37°48' W 122°21'2 3.7
2017-Nov-14 02:30N 37°49' W 122°19'0 0.0
2017-Nov-14 02:00N 37°49' W 122°19'0 0.0
2017-Nov-14 01:30N 37°49' W 122°19'0 0.0
2017-Nov-14 01:00N 37°49' W 122°19'0 0.0
2017-Nov-14 00:30N 37°49' W 122°19'0 0.0
2017-Nov-14 00:00N 37°49' W 122°19'0 0.0
2017-Nov-13 23:30N 37°49' W 122°19'0 0.0
2017-Nov-13 23:00N 37°49' W 122°19'0 0.0
2017-Nov-13 22:30N 37°49' W 122°19'0 0.0
2017-Nov-13 22:00N 37°49' W 122°19'15 0.7
2017-Nov-13 01:13N 38°04' W 122°12'0 2.0
2017-Nov-13 00:59N 38°04' W 122°13'0 0.0
2017-Nov-12 20:30N 38°03' W 122°13'2 0.8
2017-Nov-12 18:19N 38°03' W 122°11'2 6.9
2017-Nov-12 18:00N 38°04' W 122°14'4 7.3
2017-Nov-12 17:29N 38°03' W 122°18'3 7.3
2017-Nov-12 17:00N 38°02' W 122°22'6 6.7
2017-Nov-12 16:05N 37°57' W 122°27'1 8.2
2017-Nov-12 15:59N 37°56' W 122°27'1 2.9
2017-Nov-12 15:30N 37°55' W 122°26'611.6
2017-Nov-12 15:01N 37°50' W 122°22'2 4.9
2017-Nov-12 14:30N 37°49' W 122°19'0 0.3
2017-Nov-12 14:01N 37°49' W 122°19'1 1.5
2017-Nov-12 13:31N 37°49' W 122°20'0 0.4
2017-Nov-12 13:00N 37°49' W 122°20'1 2.1
2017-Nov-12 12:30N 37°49' W 122°19'0 0.0
2017-Nov-12 12:00N 37°49' W 122°19'0 0.0
2017-Nov-12 11:30N 37°49' W 122°19'0 0.0
2017-Nov-12 11:00N 37°49' W 122°19'0 0.0
2017-Nov-12 10:30N 37°49' W 122°19'0 0.0
2017-Nov-12 10:00N 37°49' W 122°19'0 0.0
2017-Nov-12 09:30N 37°49' W 122°19'0 0.0
2017-Nov-12 09:01N 37°49' W 122°19'0 0.0
2017-Nov-12 08:31N 37°49' W 122°19'0 0.0
2017-Nov-12 08:01N 37°49' W 122°19'0 0.0
2017-Nov-12 07:31N 37°49' W 122°19'0 0.0
2017-Nov-12 07:00N 37°49' W 122°19'0 0.0
2017-Nov-12 06:30N 37°49' W 122°19'0 0.0
2017-Nov-12 06:00N 37°49' W 122°19'0 0.0
2017-Nov-12 05:30N 37°49' W 122°19'0 0.0
2017-Nov-12 05:01N 37°49' W 122°19'0 0.0
2017-Nov-12 04:30N 37°49' W 122°19'0 0.0
2017-Nov-12 04:00N 37°49' W 122°19'1 1.2
2017-Nov-12 03:31N 37°49' W 122°19'2 3.4
2017-Nov-12 03:01N 37°48' W 122°18'1 1.8
2017-Nov-12 02:31N 37°48' W 122°19'0 0.0
2017-Nov-12 02:00N 37°48' W 122°19'0 0.0
2017-Nov-12 01:30N 37°48' W 122°19'0 0.4
2017-Nov-12 01:01N 37°48' W 122°19'3 6.8
2017-Nov-12 00:30N 37°50' W 122°22'4 8.4
2017-Nov-12 00:01N 37°54' W 122°24'1 2.9
2017-Nov-11 23:30N 37°55' W 122°22'0 0.1
2017-Nov-11 23:01N 37°55' W 122°22'1 1.3
2017-Nov-11 22:31N 37°54' W 122°22'3 5.4
2017-Nov-11 21:56N 37°55' W 122°25'3 6.1
2017-Nov-11 21:31N 37°53' W 122°25'2 3.2
2017-Nov-11 21:00N 37°51' W 122°24'4 7.8
2017-Nov-11 20:31N 37°49' W 122°20'1 2.8
2017-Nov-11 20:00N 37°49' W 122°19'0 0.0
2017-Nov-11 19:30N 37°49' W 122°19'0 0.0
2017-Nov-11 19:00N 37°49' W 122°19'0 0.0
2017-Nov-11 18:30N 37°49' W 122°19'0 0.0
2017-Nov-11 18:01N 37°49' W 122°19'0 0.0
2017-Nov-11 17:30N 37°49' W 122°19'0 0.0
2017-Nov-11 17:00N 37°49' W 122°19'0 0.0
2017-Nov-11 16:30N 37°49' W 122°19'0 0.0
2017-Nov-11 16:00N 37°49' W 122°19'0 0.0
2017-Nov-11 15:30N 37°49' W 122°19'1 1.2
2017-Nov-11 15:00N 37°49' W 122°19'0 0.8
2017-Nov-11 14:31N 37°49' W 122°20'1 1.7
2017-Nov-11 14:01N 37°48' W 122°21'0 0.5
2017-Nov-11 13:30N 37°49' W 122°20'2 3.1
2017-Nov-11 13:01N 37°49' W 122°19'0 0.0
2017-Nov-11 12:31N 37°49' W 122°19'0 0.0
2017-Nov-11 12:00N 37°49' W 122°19'0 0.0
2017-Nov-11 11:30N 37°49' W 122°19'0 0.0
2017-Nov-11 11:00N 37°49' W 122°19'0 0.0
2017-Nov-11 10:31N 37°49' W 122°19'0 0.0
2017-Nov-11 10:00N 37°49' W 122°19'0 0.0
2017-Nov-11 09:30N 37°49' W 122°19'0 0.0
2017-Nov-11 09:00N 37°49' W 122°19'0 0.0
2017-Nov-11 08:31N 37°49' W 122°19'0 0.0
2017-Nov-11 08:00N 37°49' W 122°19'0 0.0
2017-Nov-11 07:30N 37°49' W 122°19'0 0.0
2017-Nov-11 07:01N 37°49' W 122°19'0 0.0
2017-Nov-11 06:31N 37°49' W 122°19'0 0.0
2017-Nov-11 06:00N 37°49' W 122°19'0 0.0
2017-Nov-11 05:30N 37°49' W 122°19'0 0.0
2017-Nov-11 05:00N 37°49' W 122°19'0 0.0
2017-Nov-11 04:30N 37°49' W 122°19'0 0.0
2017-Nov-11 04:01N 37°49' W 122°19'0 0.0
2017-Nov-11 03:31N 37°49' W 122°19'0 0.0
2017-Nov-11 03:00N 37°49' W 122°19'0 0.0
2017-Nov-11 02:30N 37°49' W 122°19'0 0.0
2017-Nov-11 02:01N 37°49' W 122°19'0 0.0
2017-Nov-11 01:31N 37°49' W 122°19'0 0.0
2017-Nov-11 01:00N 37°49' W 122°19'2 4.0
2017-Nov-11 00:31N 37°49' W 122°21'5 9.8
2017-Nov-11 00:00N 37°53' W 122°25'3 2.8
2017-Nov-10 23:04N 37°56' W 122°25'0 1.4
2017-Nov-10 22:55N 37°56' W 122°25'2 4.1
2017-Nov-10 22:26N 37°58' W 122°26'5 8.5
2017-Nov-10 21:52N 38°02' W 122°23'3 8.5
2017-Nov-10 21:30N 38°03' W 122°19'9 1.3
2017-Nov-10 14:37N 38°02' W 122°08'3 0.3
2017-Nov-10 02:56N 38°03' W 122°12'1 0.9
2017-Nov-10 01:21N 38°04' W 122°14'  

Dump ship's entire track history